Time;durP1;ratioP1;P1;durP2;ratioP2;P2;SDS_P1;SDS_P2;PMS_P1;PMS_P2;Temp;Humidity;BMP_temperature;BMP_pressure;BME280_temperature;BME280_humidity;BME280_pressure;Samples;Min_cycle;Max_cycle;Signal;HPM_P1;HPM_P2
2022/07/13 00:02:22;;;;;;;23.38;13.90;;;;;;;21.98;100.00;101783.16;5048093;28;20041;-78
2022/07/13 00:04:48;;;;;;;25.25;14.60;;;;;;;21.97;100.00;101786.97;5045431;28;20549;-78
2022/07/13 00:07:13;;;;;;;24.52;13.80;;;;;;;21.93;100.00;101788.38;5046137;28;20396;-79
2022/07/13 00:09:39;;;;;;;20.27;12.73;;;;;;;21.91;100.00;101779.31;5059777;28;20069;-79
2022/07/13 00:12:04;;;;;;;26.30;13.07;;;;;;;21.91;100.00;101793.25;5059034;28;20396;-78
2022/07/13 00:14:30;;;;;;;22.38;12.88;;;;;;;21.94;100.00;101782.63;4997643;28;20032;-78
2022/07/13 00:16:56;;;;;;;21.88;13.85;;;;;;;21.87;100.00;101797.44;5048613;28;20022;-78
2022/07/13 00:19:21;;;;;;;20.85;12.60;;;;;;;21.90;100.00;101792.38;5037260;28;20102;-78
2022/07/13 00:21:47;;;;;;;23.05;12.85;;;;;;;22.03;100.00;101789.06;5049466;28;20095;-78
2022/07/13 00:24:14;;;;;;;22.88;13.00;;;;;;;21.92;100.00;101781.03;5057216;28;20370;-77
2022/07/13 00:26:40;;;;;;;17.60;12.30;;;;;;;21.87;100.00;101784.34;5012785;28;20055;-78
2022/07/13 00:29:06;;;;;;;22.42;13.15;;;;;;;21.82;100.00;101793.25;5064179;28;20035;-77
2022/07/13 00:31:31;;;;;;;25.02;12.73;;;;;;;21.86;100.00;101785.41;5023115;28;20033;-77
2022/07/13 00:33:57;;;;;;;26.48;12.00;;;;;;;21.85;100.00;101778.09;5046179;28;20140;-78
2022/07/13 00:36:22;;;;;;;23.88;13.75;;;;;;;21.84;100.00;101768.84;5057420;28;20057;-78
2022/07/13 00:38:48;;;;;;;19.35;13.93;;;;;;;21.82;100.00;101762.59;5047334;28;20489;-78
2022/07/13 00:41:13;;;;;;;22.80;13.90;;;;;;;21.76;100.00;101749.34;5046885;28;20046;-78
2022/07/13 00:43:39;;;;;;;23.50;13.70;;;;;;;21.74;100.00;101740.28;5044384;28;20087;-78
2022/07/13 00:46:05;;;;;;;21.60;13.90;;;;;;;21.63;100.00;101737.84;5031047;28;20049;-78
2022/07/13 00:48:31;;;;;;;29.05;13.52;;;;;;;21.63;100.00;101732.25;5039661;28;20042;-78
2022/07/13 00:50:56;;;;;;;22.92;12.95;;;;;;;21.64;100.00;101725.63;5048229;28;20037;-78
2022/07/13 00:53:23;;;;;;;26.90;14.02;;;;;;;21.69;100.00;101725.09;5044150;28;20060;-78
2022/07/13 00:55:49;;;;;;;20.58;12.50;;;;;;;21.62;100.00;101720.22;5039190;28;20056;-78
2022/07/13 00:58:15;;;;;;;20.08;12.45;;;;;;;21.62;100.00;101720.22;5052298;28;20041;-78
2022/07/13 01:00:40;;;;;;;21.77;12.73;;;;;;;21.57;100.00;101727.38;5043403;28;20079;-78
2022/07/13 01:03:06;;;;;;;22.38;12.32;;;;;;;21.51;100.00;101717.75;5044703;28;20053;-78
2022/07/13 01:05:31;;;;;;;27.25;12.77;;;;;;;21.64;100.00;101718.16;5038565;28;20037;-78
2022/07/13 01:07:57;;;;;;;23.52;11.90;;;;;;;21.60;100.00;101707.50;5034126;28;20036;-78
2022/07/13 01:10:23;;;;;;;27.35;12.18;;;;;;;21.58;100.00;101717.94;5047129;28;20065;-78
2022/07/13 01:12:49;;;;;;;15.63;10.50;;;;;;;21.64;100.00;101714.47;5030759;28;20037;-78
2022/07/13 01:15:15;;;;;;;23.05;11.38;;;;;;;21.70;100.00;101708.22;5033280;28;20029;-78
2022/07/13 01:17:41;;;;;;;19.88;11.25;;;;;;;21.66;100.00;101706.78;5048311;28;20113;-77
2022/07/13 01:20:08;;;;;;;20.80;10.98;;;;;;;21.64;100.00;101706.09;5044965;28;20037;-79
2022/07/13 01:22:50;;;;;;;20.33;10.95;;;;;;;21.60;100.00;101704.72;5038062;28;23134;-78
2022/07/13 01:25:16;;;;;;;17.15;10.95;;;;;;;21.70;100.00;101690.63;5043561;28;20044;-78
2022/07/13 01:27:43;;;;;;;24.20;10.75;;;;;;;21.60;100.00;101702.81;5049300;28;20029;-78
2022/07/13 01:30:09;;;;;;;18.02;10.85;;;;;;;21.55;100.00;101691.31;5051633;28;20485;-78
2022/07/13 01:32:43;;;;;;;19.63;10.48;;;;;;;21.52;100.00;101691.66;5039833;28;20030;-79
2022/07/13 01:35:09;;;;;;;20.35;10.57;;;;;;;21.48;100.00;101705.06;5045860;28;20538;-78
2022/07/13 01:37:35;;;;;;;23.80;10.80;;;;;;;21.47;100.00;101699.63;5048049;28;20101;-78
2022/07/13 01:40:00;;;;;;;16.33;10.57;;;;;;;21.25;100.00;101687.22;5037853;28;20472;-78
2022/07/13 01:42:26;;;;;;;20.75;10.13;;;;;;;21.26;100.00;101688.97;5033462;28;20040;-78
2022/07/13 01:44:54;;;;;;;16.55;11.10;;;;;;;21.24;100.00;101691.06;5043658;28;20041;-77
2022/07/13 01:47:19;;;;;;;22.30;11.75;;;;;;;21.09;100.00;101682.50;5038069;28;20030;-78
2022/07/13 01:49:45;;;;;;;24.38;11.18;;;;;;;21.07;100.00;101679.00;5046349;28;20048;-78
2022/07/13 01:52:10;;;;;;;18.83;11.15;;;;;;;21.09;100.00;101682.50;5047868;28;20484;-78
2022/07/13 01:54:36;;;;;;;17.10;10.77;;;;;;;21.08;100.00;101684.41;5050157;28;20053;-78
2022/07/13 01:57:01;;;;;;;18.27;11.13;;;;;;;21.10;100.00;101679.56;5035570;28;20053;-79
2022/07/13 01:59:27;;;;;;;19.13;11.13;;;;;;;21.22;100.00;101682.88;5041175;28;20033;-79
2022/07/13 02:01:53;;;;;;;19.98;9.80;;;;;;;21.19;100.00;101677.66;5042450;28;20128;-78
2022/07/13 02:04:18;;;;;;;17.85;10.57;;;;;;;21.17;100.00;101674.16;5042979;28;20068;-78
2022/07/13 02:06:44;;;;;;;19.08;10.07;;;;;;;21.18;100.00;101673.09;5043832;28;20117;-78
2022/07/13 02:09:09;;;;;;;18.77;9.70;;;;;;;21.24;100.00;101669.66;5006072;28;20037;-79
2022/07/13 02:11:34;;;;;;;19.10;9.82;;;;;;;21.24;100.00;101671.56;5040601;28;20128;-79
2022/07/13 02:14:00;;;;;;;16.48;9.35;;;;;;;21.26;100.00;101669.47;5043423;28;20033;-79
2022/07/13 02:16:26;;;;;;;15.25;9.40;;;;;;;21.19;100.00;101666.50;5038352;28;20077;-79
2022/07/13 02:18:51;;;;;;;21.95;9.93;;;;;;;21.20;100.00;101665.47;5044116;28;20037;-79
2022/07/13 02:21:17;;;;;;;22.25;10.07;;;;;;;21.20;100.00;101667.38;5038208;28;20048;-79
2022/07/13 02:23:43;;;;;;;18.13;9.93;;;;;;;21.28;100.00;101672.94;5048504;28;20112;-78
2022/07/13 02:26:08;;;;;;;12.70;9.40;;;;;;;21.27;100.00;101669.31;5039454;28;20044;-78
2022/07/13 02:28:34;;;;;;;12.23;9.20;;;;;;;21.23;100.00;101667.88;5037787;28;20038;-79
2022/07/13 02:30:59;;;;;;;15.20;9.10;;;;;;;21.34;100.00;101661.13;5047331;28;20524;-78
2022/07/13 02:33:25;;;;;;;14.38;9.75;;;;;;;21.32;100.00;101666.00;5031692;28;20109;-79
2022/07/13 02:35:50;;;;;;;13.75;9.27;;;;;;;21.40;100.00;101665.16;5039794;28;20050;-79
2022/07/13 02:38:16;;;;;;;12.77;8.82;;;;;;;21.33;100.00;101662.16;5024587;28;20052;-77
2022/07/13 02:40:41;;;;;;;17.15;9.45;;;;;;;21.37;100.00;101657.13;5043177;28;20124;-78
2022/07/13 02:43:07;;;;;;;14.35;8.23;;;;;;;21.37;100.00;101651.56;5046450;28;20033;-79
2022/07/13 02:45:33;;;;;;;16.90;9.75;;;;;;;21.40;100.00;101656.78;5030923;28;20118;-78
2022/07/13 02:47:59;;;;;;;11.25;8.15;;;;;;;21.37;100.00;101641.28;5054917;28;20490;-78
2022/07/13 02:50:24;;;;;;;18.38;8.75;;;;;;;21.43;100.00;101635.03;5050668;28;20523;-78
2022/07/13 02:52:51;;;;;;;15.38;8.65;;;;;;;21.39;100.00;101639.19;5046802;28;20032;-78
2022/07/13 02:55:17;;;;;;;13.73;7.85;;;;;;;21.37;100.00;101635.72;5047371;28;20052;-79
2022/07/13 02:57:42;;;;;;;13.95;9.02;;;;;;;21.36;100.00;101645.09;5052648;28;20025;-78
2022/07/13 03:00:08;;;;;;;11.60;8.57;;;;;;;21.42;100.00;101646.34;5047586;28;20044;-78
2022/07/13 03:02:34;;;;;;;11.98;7.78;;;;;;;21.49;100.00;101650.19;5047514;28;20033;-79
2022/07/13 03:05:00;;;;;;;16.75;8.40;;;;;;;21.37;100.00;101655.22;5032745;28;20041;-78
2022/07/13 03:07:25;;;;;;;11.82;8.93;;;;;;;21.40;100.00;101657.66;5047190;28;20377;-78
2022/07/13 03:09:52;;;;;;;20.77;8.20;;;;;;;21.40;100.00;101652.09;5036154;28;20025;-78
2022/07/13 03:12:17;;;;;;;14.77;8.13;;;;;;;21.43;100.00;101648.94;5044285;28;20090;-78
2022/07/13 03:14:42;;;;;;;10.43;7.82;;;;;;;21.42;100.00;101655.56;5033703;28;20025;-78
2022/07/13 03:17:08;;;;;;;16.25;7.70;;;;;;;21.47;100.00;101644.78;5035120;28;20038;-79
2022/07/13 03:19:34;;;;;;;19.67;7.60;;;;;;;21.44;100.00;101631.16;5047534;28;20029;-79
2022/07/13 03:22:02;;;;;;;11.35;7.90;;;;;;;21.41;100.00;101623.16;5042819;28;20061;-78
2022/07/13 03:24:29;;;;;;;13.52;7.93;;;;;;;21.35;100.00;101611.84;5046739;28;20072;-79
2022/07/13 03:26:54;;;;;;;12.82;8.20;;;;;;;21.38;100.00;101628.22;5041428;28;20045;-78
2022/07/13 03:29:20;;;;;;;12.20;7.50;;;;;;;21.31;100.00;101625.25;5045653;28;20033;-78
2022/07/13 03:31:46;;;;;;;12.98;8.25;;;;;;;21.30;100.00;101634.66;5046233;28;20065;-79
2022/07/13 03:34:11;;;;;;;17.15;8.13;;;;;;;21.29;100.00;101638.50;5056227;28;20053;-78
2022/07/13 03:36:37;;;;;;;13.85;8.00;;;;;;;21.26;100.00;101642.47;5043087;28;20049;-79
2022/07/13 03:39:02;;;;;;;14.43;7.88;;;;;;;21.33;100.00;101631.50;5043429;28;20125;-78
2022/07/13 03:41:28;;;;;;;12.98;7.88;;;;;;;21.43;100.00;101637.81;5043939;28;20373;-78
2022/07/13 03:43:53;;;;;;;14.00;7.97;;;;;;;21.43;100.00;101631.34;5043502;28;21546;-78
2022/07/13 03:46:19;;;;;;;11.50;7.30;;;;;;;21.38;100.00;101629.09;5043619;28;20037;-78
2022/07/13 03:48:44;;;;;;;14.77;7.78;;;;;;;21.44;100.00;101617.22;5030200;28;20551;-78
2022/07/13 03:51:09;;;;;;;11.55;7.43;;;;;;;21.39;100.00;101616.03;5035190;28;20539;-78
2022/07/13 03:53:35;;;;;;;21.70;7.38;;;;;;;21.47;100.00;101622.50;5050203;28;20411;-78
2022/07/13 03:56:01;;;;;;;10.20;6.80;;;;;;;21.47;100.00;101622.50;5044373;28;20060;-78
2022/07/13 03:58:26;;;;;;;12.77;7.40;;;;;;;21.49;100.00;101630.69;5048326;28;20045;-79
2022/07/13 04:00:52;;;;;;;17.67;6.85;;;;;;;21.56;100.00;101636.44;5047577;28;20516;-78
2022/07/13 04:03:17;;;;;;;11.55;6.90;;;;;;;21.62;100.00;101636.59;5046625;28;20060;-79
2022/07/13 04:05:43;;;;;;;13.05;7.10;;;;;;;21.63;100.00;101629.97;5033162;28;20051;-78
2022/07/13 04:08:08;;;;;;;15.10;6.65;;;;;;;21.59;100.00;101628.56;5054096;28;20545;-78
2022/07/13 04:10:33;;;;;;;11.88;6.38;;;;;;;21.69;100.00;101627.53;5036424;28;20044;-79
2022/07/13 04:12:59;;;;;;;11.15;7.07;;;;;;;21.64;100.00;101616.91;5043500;28;20037;-79
2022/07/13 04:15:25;;;;;;;12.45;6.25;;;;;;;21.66;100.00;101621.28;5037986;28;20032;-79
2022/07/13 04:17:51;;;;;;;14.05;6.47;;;;;;;21.71;100.00;101623.53;5013076;28;20026;-79
2022/07/13 04:20:17;;;;;;;15.68;6.30;;;;;;;21.67;100.00;101611.00;5029464;28;20041;-80
2022/07/13 04:22:42;;;;;;;8.30;6.25;;;;;;;21.67;100.00;101611.00;5038878;28;20041;-80
2022/07/13 04:25:08;;;;;;;8.98;6.68;;;;;;;21.71;100.00;101617.97;5036407;28;20029;-80
2022/07/13 04:27:34;;;;;;;17.92;6.70;;;;;;;21.65;100.00;101613.09;5025171;28;20037;-80
2022/07/13 04:30:01;;;;;;;17.13;5.63;;;;;;;21.73;100.00;101609.44;5042377;28;20048;-77
2022/07/13 04:32:26;;;;;;;14.60;5.95;;;;;;;21.77;100.00;101608.00;5026483;28;20029;-78
2022/07/13 04:34:52;;;;;;;11.45;5.65;;;;;;;21.87;100.00;101608.69;5036328;28;20446;-77
2022/07/13 04:37:17;;;;;;;14.82;6.57;;;;;;;21.87;100.00;101610.59;5040511;28;20053;-78
2022/07/13 04:39:43;;;;;;;14.65;5.72;;;;;;;21.89;100.00;101601.03;5044285;28;20030;-79
2022/07/13 04:42:08;;;;;;;14.20;5.20;;;;;;;22.03;100.00;101605.84;5045526;28;20041;-78
2022/07/13 04:44:34;;;;;;;10.27;5.38;;;;;;;22.08;100.00;101598.88;5039275;28;20158;-79
2022/07/13 04:46:59;;;;;;;14.35;5.68;;;;;;;22.05;99.59;101604.81;5044691;28;20044;-79
2022/07/13 04:49:25;;;;;;;8.63;5.28;;;;;;;22.02;99.45;101598.56;5043937;28;20033;-78
2022/07/13 04:51:51;;;;;;;13.75;5.63;;;;;;;21.99;99.74;101592.47;5040957;28;20120;-78
2022/07/13 04:54:17;;;;;;;10.40;5.82;;;;;;;22.10;99.79;101591.19;5032111;28;20148;-78
2022/07/13 04:56:43;;;;;;;13.15;5.40;;;;;;;22.16;97.61;101585.75;5043404;28;20052;-79
2022/07/13 04:59:09;;;;;;;9.88;5.32;;;;;;;22.03;99.45;101589.13;5032255;28;20046;-78
2022/07/13 05:01:34;;;;;;;10.80;5.72;;;;;;;22.07;98.72;101581.28;5040375;28;20025;-79
2022/07/13 05:04:01;;;;;;;12.68;5.03;;;;;;;22.02;98.38;101581.81;5024790;28;20464;-79
2022/07/13 05:06:27;;;;;;;13.45;5.55;;;;;;;22.04;98.38;101584.44;5039634;28;20038;-79
2022/07/13 05:08:53;;;;;;;12.98;5.03;;;;;;;22.02;97.72;101589.28;5046001;28;20039;-79
2022/07/13 05:11:18;;;;;;;8.85;4.70;;;;;;;21.99;97.76;101581.31;5041010;28;20033;-79
2022/07/13 05:13:45;;;;;;;10.68;5.03;;;;;;;21.93;98.12;101582.03;5044565;28;20438;-80
2022/07/13 05:16:10;;;;;;;11.55;4.57;;;;;;;21.98;97.37;101587.94;5039378;28;20381;-80
2022/07/13 05:18:36;;;;;;;9.52;4.10;;;;;;;22.03;97.08;101588.25;5008974;28;20060;-79
2022/07/13 05:21:02;;;;;;;9.30;4.45;;;;;;;22.06;97.94;101596.28;5037577;28;20102;-80
2022/07/13 05:23:27;;;;;;;8.48;4.50;;;;;;;22.09;97.25;101595.06;5029476;28;20503;-80
2022/07/13 05:25:53;;;;;;;10.23;4.13;;;;;;;22.15;95.46;101588.72;5019450;28;20083;-79
2022/07/13 05:28:18;;;;;;;8.63;4.63;;;;;;;22.14;95.89;101584.22;5040113;28;20033;-80
2022/07/13 05:30:44;;;;;;;9.23;4.00;;;;;;;22.08;95.33;101587.72;5048959;28;20025;-79
2022/07/13 05:33:09;;;;;;;8.80;3.80;;;;;;;22.09;95.92;101581.09;5022048;28;20032;-79
2022/07/13 05:35:34;;;;;;;5.90;4.18;;;;;;;22.13;96.12;101588.91;5048963;28;20045;-80
2022/07/13 05:38:00;;;;;;;9.70;4.65;;;;;;;22.15;95.55;101586.84;5044989;28;20065;-80
2022/07/13 05:40:25;;;;;;;5.60;3.88;;;;;;;22.24;94.42;101589.59;5056067;28;20044;-80
2022/07/13 05:42:52;;;;;;;5.82;3.63;;;;;;;22.43;94.07;101586.41;5034704;28;20034;-80
2022/07/13 05:45:19;;;;;;;10.75;4.40;;;;;;;22.37;94.67;101584.34;5038722;28;20048;-80
2022/07/13 05:47:48;;;;;;;11.63;3.97;;;;;;;22.38;94.45;101584.16;5027398;28;20473;-78
2022/07/13 05:50:14;;;;;;;10.50;4.25;;;;;;;22.45;94.20;101592.66;5050358;28;20095;-77
2022/07/13 05:52:40;;;;;;;12.32;3.90;;;;;;;22.51;92.68;101594.72;5058566;28;20123;-78
2022/07/13 05:55:09;;;;;;;11.13;4.57;;;;;;;22.45;92.76;101601.03;5027746;28;20079;-78
2022/07/13 05:57:34;;;;;;;25.23;4.43;;;;;;;22.39;93.69;101598.97;5042700;28;20040;-79
2022/07/13 06:00:00;;;;;;;21.67;4.90;;;;;;;22.49;91.97;101599.59;5045414;28;20497;-79
2022/07/13 06:02:26;;;;;;;19.20;4.50;;;;;;;22.55;92.28;101609.19;5036803;28;20457;-79
2022/07/13 06:04:52;;;;;;;17.50;4.50;;;;;;;22.60;92.72;101608.66;5030934;28;20049;-78
2022/07/13 06:07:17;;;;;;;10.52;4.30;;;;;;;22.54;92.82;101601.84;5038026;28;20037;-80
2022/07/13 06:09:43;;;;;;;9.07;4.20;;;;;;;22.56;91.30;101605.31;5019381;28;20451;-78
2022/07/13 06:12:08;;;;;;;17.00;4.20;;;;;;;22.70;91.10;101604.56;5044906;28;20599;-79
2022/07/13 06:14:33;;;;;;;9.43;3.97;;;;;;;22.76;90.87;101600.19;5039888;28;20026;-78
2022/07/13 06:16:59;;;;;;;7.57;4.05;;;;;;;22.68;89.60;101612.25;5022614;28;20064;-79
2022/07/13 06:19:25;;;;;;;11.52;4.05;;;;;;;22.75;90.20;101602.09;5047531;28;20080;-78
2022/07/13 06:21:50;;;;;;;10.32;4.07;;;;;;;22.84;89.30;101602.03;5029745;28;20112;-78
2022/07/13 06:24:16;;;;;;;11.15;3.80;;;;;;;23.02;88.27;101601.72;5038228;28;20037;-78
2022/07/13 06:26:41;;;;;;;6.82;3.78;;;;;;;23.15;88.23;101598.38;5036013;28;20400;-78
2022/07/13 06:29:07;;;;;;;10.00;3.58;;;;;;;23.20;87.76;101591.19;5037689;28;20072;-78
2022/07/13 06:31:34;;;;;;;7.80;3.45;;;;;;;23.28;86.79;101599.50;5038530;28;20036;-79
2022/07/13 06:33:59;;;;;;;7.43;3.28;;;;;;;23.22;86.19;101600.22;5045419;28;20068;-80
2022/07/13 06:36:25;;;;;;;10.57;3.78;;;;;;;23.09;87.47;101597.19;5019826;28;20104;-79
2022/07/13 06:38:50;;;;;;;14.30;3.20;;;;;;;23.16;86.46;101605.69;5032930;28;20037;-80
2022/07/13 06:41:16;;;;;;;6.28;3.17;;;;;;;23.22;86.07;101594.63;5034565;28;20038;-80
2022/07/13 06:43:42;;;;;;;4.90;3.15;;;;;;;23.33;86.20;101607.28;5040980;28;20460;-79
2022/07/13 06:46:09;;;;;;;5.55;2.95;;;;;;;23.53;84.93;101607.66;5040512;28;20084;-79
2022/07/13 06:48:37;;;;;;;8.73;3.40;;;;;;;23.56;84.51;101598.88;5019440;28;20166;-80
2022/07/13 06:51:04;;;;;;;15.88;3.80;;;;;;;23.78;83.55;101591.50;5038198;28;20389;-80
2022/07/13 06:53:30;;;;;;;6.65;3.30;;;;;;;23.82;84.21;101595.66;5057155;28;20032;-79
2022/07/13 06:55:55;;;;;;;10.73;3.40;;;;;;;23.94;84.23;101590.50;5040276;28;20041;-79
2022/07/13 06:58:21;;;;;;;9.98;3.53;;;;;;;24.09;83.17;101596.09;5051273;28;20037;-80
2022/07/13 07:00:47;;;;;;;11.30;3.47;;;;;;;23.92;82.95;101591.72;5040594;28;20060;-80
2022/07/13 07:03:13;;;;;;;11.73;3.22;;;;;;;23.98;82.08;101593.78;5055535;28;20042;-80
2022/07/13 07:05:39;;;;;;;7.15;2.97;;;;;;;24.06;82.53;101593.69;5046111;28;20029;-79
2022/07/13 07:08:05;;;;;;;10.82;3.38;;;;;;;23.94;82.94;101598.00;5045478;28;20041;-80
2022/07/13 07:10:31;;;;;;;5.50;2.97;;;;;;;24.03;82.70;101600.50;5059201;28;20067;-79
2022/07/13 07:12:56;;;;;;;4.88;3.10;;;;;;;24.09;82.06;101603.59;5056474;28;20036;-79
2022/07/13 07:15:23;;;;;;;7.03;3.00;;;;;;;24.31;82.29;101605.44;5027518;28;20388;-80
2022/07/13 07:17:49;;;;;;;9.30;3.00;;;;;;;24.22;82.09;101601.00;5029711;28;20048;-80
2022/07/13 07:20:15;;;;;;;10.60;3.08;;;;;;;24.21;82.92;101602.06;5023815;28;20040;-79
2022/07/13 07:22:41;;;;;;;6.25;2.97;;;;;;;24.31;81.77;101608.22;5051972;28;20034;-80
2022/07/13 07:25:08;;;;;;;6.90;3.22;;;;;;;24.22;82.74;101596.28;5058969;28;20128;-80
2022/07/13 07:27:34;;;;;;;8.85;3.13;;;;;;;24.27;81.75;101597.59;5054440;28;20037;-79
2022/07/13 07:29:59;;;;;;;10.38;2.78;;;;;;;24.42;82.85;101606.03;5040784;28;20405;-79
2022/07/13 07:32:25;;;;;;;7.57;3.17;;;;;;;24.45;82.58;101605.59;5046716;28;20026;-79
2022/07/13 07:34:50;;;;;;;13.85;3.08;;;;;;;24.40;82.43;101598.69;5039634;28;20034;-78
2022/07/13 07:37:19;;;;;;;8.45;2.90;;;;;;;24.48;82.70;101596.81;5041203;28;20057;-79
2022/07/13 07:39:44;;;;;;;4.57;2.60;;;;;;;24.51;80.84;101590.84;5040513;28;20042;-80
2022/07/13 07:42:12;;;;;;;10.52;3.22;;;;;;;24.99;81.52;101595.94;5041383;28;20102;-79
2022/07/13 07:44:37;;;;;;;10.38;3.03;;;;;;;25.06;78.31;101592.16;5040369;28;20033;-79
2022/07/13 07:47:02;;;;;;;6.18;2.75;;;;;;;24.95;78.35;101598.28;5035796;28;20045;-79
2022/07/13 07:49:28;;;;;;;9.23;3.15;;;;;;;25.55;76.43;101598.03;5041597;28;20035;-80
2022/07/13 07:51:54;;;;;;;7.95;2.50;;;;;;;25.64;76.05;101603.28;5007961;28;20048;-80
2022/07/13 07:54:20;;;;;;;7.65;3.20;;;;;;;25.05;77.53;101598.81;5025220;28;20536;-80
2022/07/13 07:56:45;;;;;;;5.75;2.83;;;;;;;25.30;77.06;101590.03;5045316;28;20033;-80
2022/07/13 07:59:12;;;;;;;8.60;2.88;;;;;;;25.78;75.53;101590.25;5030565;28;20029;-79
2022/07/13 08:01:38;;;;;;;5.97;2.75;;;;;;;26.18;75.52;101584.03;5040885;28;20116;-80
2022/07/13 08:04:03;;;;;;;10.15;2.72;;;;;;;26.75;72.11;101585.63;5047294;28;20120;-80
2022/07/13 08:06:29;;;;;;;9.48;3.13;;;;;;;26.46;72.18;101585.91;5054731;28;20035;-78
2022/07/13 08:08:54;;;;;;;7.55;2.72;;;;;;;26.31;71.97;101583.25;5014884;28;20037;-78
2022/07/13 08:11:20;;;;;;;4.85;2.92;;;;;;;26.32;72.14;101582.19;5040175;28;20129;-78
2022/07/13 08:13:46;;;;;;;10.18;2.50;;;;;;;26.28;73.97;101584.53;5038179;28;20428;-78
2022/07/13 08:16:13;;;;;;;7.55;2.40;;;;;;;26.54;73.36;101589.41;5036193;28;20037;-78
2022/07/13 08:18:39;;;;;;;17.75;2.33;;;;;;;26.72;70.50;101585.19;5055644;28;20075;-78
2022/07/13 08:21:04;;;;;;;7.43;2.53;;;;;;;25.86;73.83;101587.28;5029173;28;20076;-78
2022/07/13 08:26:14;;;;;;;9.05;2.83;;;;;;;26.06;74.86;101575.34;5056932;28;20052;-79
2022/07/13 08:28:40;;;;;;;10.10;2.75;;;;;;;26.45;72.63;101590.69;5039831;28;20046;-79
2022/07/13 08:31:05;;;;;;;7.60;2.50;;;;;;;27.01;72.95;101591.56;5034027;28;20053;-78
2022/07/13 08:38:59;;;;;;;18.90;2.67;;;;;;;26.52;72.15;101588.75;5041336;28;20105;-78
2022/07/13 08:41:25;;;;;;;10.65;2.88;;;;;;;26.50;72.93;101587.22;5047007;28;20037;-79
2022/07/13 08:43:50;;;;;;;5.25;2.50;;;;;;;26.54;72.18;101585.75;5031497;28;20112;-79
2022/07/13 08:46:18;;;;;;;7.13;2.58;;;;;;;26.42;72.92;101588.28;5045691;28;20041;-79
2022/07/13 08:48:49;;;;;;;7.30;2.63;;;;;;;26.52;72.75;101574.72;5034915;28;20101;-79
2022/07/13 08:51:18;;;;;;;10.73;2.50;;;;;;;26.80;74.24;101578.53;5023750;28;20025;-79
2022/07/13 08:53:43;;;;;;;15.18;2.22;;;;;;;27.09;72.84;101582.91;5042246;28;20488;-79
2022/07/13 08:56:10;;;;;;;5.53;2.30;;;;;;;26.90;71.99;101581.78;5056471;28;20033;-79
2022/07/13 08:58:37;;;;;;;11.32;2.58;;;;;;;26.81;73.37;101583.94;5037346;28;20400;-79
2022/07/13 09:01:02;;;;;;;4.97;2.50;;;;;;;26.57;73.96;101579.69;5050178;28;20112;-78
2022/07/13 09:03:37;;;;;;;9.88;2.90;;;;;;;26.59;74.54;101577.53;5043392;28;20111;-78
2022/07/13 09:06:03;;;;;;;4.97;2.90;;;;;;;27.34;71.95;101580.38;5054805;28;20416;-79
2022/07/13 09:08:29;;;;;;;9.15;2.50;;;;;;;27.52;72.25;101576.06;5048993;28;20171;-78
2022/07/13 09:10:57;;;;;;;10.30;2.88;;;;;;;28.19;70.07;101586.16;5049725;28;20099;-79
2022/07/13 09:13:36;;;;;;;16.95;3.63;;;;;;;27.64;70.97;101588.38;5034813;28;20052;-79
2022/07/13 09:16:17;;;;;;;11.77;3.08;;;;;;;27.77;70.57;101588.34;5035698;28;20034;-79
2022/07/13 09:18:44;;;;;;;6.78;3.53;;;;;;;28.23;69.26;101590.25;5036017;28;20037;-79
2022/07/13 09:21:10;;;;;;;11.70;3.92;;;;;;;28.16;69.27;101597.00;5040587;28;20477;-78
2022/07/13 09:23:36;;;;;;;7.40;2.85;;;;;;;28.38;69.38;101604.09;5035414;28;20063;-78
2022/07/13 09:26:01;;;;;;;6.28;2.97;;;;;;;29.01;66.61;101610.09;5018707;28;20405;-78
2022/07/13 09:28:27;;;;;;;20.85;3.20;;;;;;;28.42;70.07;101605.38;5034534;28;20389;-78
2022/07/13 09:30:59;;;;;;;6.53;2.45;;;;;;;28.42;69.85;101605.38;5036284;28;20064;-79
2022/07/13 09:33:35;;;;;;;10.02;3.08;;;;;;;28.12;70.83;101602.22;5054391;28;20388;-79
2022/07/13 09:36:18;;;;;;;5.78;2.60;;;;;;;28.37;70.57;101607.13;5056445;28;20053;-78
2022/07/13 09:38:45;;;;;;;6.15;2.95;;;;;;;28.29;70.08;101605.41;5036099;28;20044;-78
2022/07/13 09:41:14;;;;;;;4.25;2.97;;;;;;;28.35;70.83;101607.34;5039736;28;20064;-78
2022/07/13 09:47:03;;;;;;;7.17;2.80;;;;;;;28.27;69.72;101610.41;5034507;28;20037;-77
2022/07/13 09:49:43;;;;;;;8.32;3.47;;;;;;;27.71;71.80;101610.88;5034852;28;20037;-78
2022/07/13 09:52:13;;;;;;;8.00;3.00;;;;;;;28.09;71.17;101611.09;5036520;28;20033;-78
2022/07/13 09:54:41;;;;;;;10.02;3.83;;;;;;;27.67;70.91;101599.19;5035304;28;20057;-79
2022/07/13 09:57:10;;;;;;;6.38;2.80;;;;;;;28.21;68.61;101611.28;5034767;28;20033;-78
2022/07/13 09:59:37;;;;;;;6.45;2.88;;;;;;;28.03;69.41;101615.63;5018924;28;20484;-78
2022/07/13 10:02:03;;;;;;;7.43;2.50;;;;;;;27.76;71.51;101613.91;5035678;28;20075;-79
2022/07/13 10:04:29;;;;;;;9.02;3.28;;;;;;;27.64;70.67;101611.75;5018192;28;20195;-78
2022/07/13 10:06:55;;;;;;;9.07;2.95;;;;;;;27.65;72.10;101607.84;5035129;28;20041;-78
2022/07/13 10:09:40;;;;;;;13.70;3.10;;;;;;;27.64;72.49;101610.88;5045410;28;20511;-79
2022/07/13 10:12:07;;;;;;;7.75;2.90;;;;;;;27.66;71.62;101612.41;5034237;28;20500;-78
2022/07/13 10:14:33;;;;;;;6.10;3.03;;;;;;;27.54;73.55;101616.09;5036678;28;20385;-77
2022/07/13 10:17:09;;;;;;;8.77;3.38;;;;;;;27.58;72.69;101620.19;5032873;28;20037;-77
2022/07/13 10:19:48;;;;;;;10.50;3.20;;;;;;;27.37;73.14;101626.88;5039248;28;20037;-78
2022/07/13 10:22:20;;;;;;;12.55;3.78;;;;;;;27.65;72.95;101613.47;5026820;28;20033;-78
2022/07/13 10:24:53;;;;;;;13.25;3.13;;;;;;;27.69;72.58;101620.44;5034673;28;20029;-78
2022/07/13 10:27:26;;;;;;;12.43;3.22;;;;;;;27.87;72.23;101616.91;5045137;28;20045;-78
2022/07/13 10:29:53;;;;;;;7.05;2.70;;;;;;;28.15;71.01;101621.47;5049824;28;20056;-79
2022/07/13 10:32:26;;;;;;;4.55;2.53;;;;;;;28.28;69.49;101620.56;5027305;28;20119;-78
2022/07/13 10:35:02;;;;;;;10.30;3.00;;;;;;;28.44;67.91;101619.22;5044676;28;20037;-78
2022/07/13 10:37:28;;;;;;;5.75;3.10;;;;;;;28.02;68.71;101619.56;5020181;28;20034;-77
2022/07/13 10:40:19;;;;;;;4.55;2.92;;;;;;;27.99;70.23;101620.00;5036909;28;20055;-77
2022/07/13 10:42:53;;;;;;;9.27;3.30;;;;;;;28.30;68.75;101631.63;5039110;28;20037;-77
2022/07/13 10:45:34;;;;;;;7.47;3.00;;;;;;;28.52;67.65;101623.75;5038561;28;20034;-77
2022/07/13 10:48:04;;;;;;;9.57;3.08;;;;;;;28.58;68.15;101631.34;5044824;28;20029;-77
2022/07/13 10:50:36;;;;;;;10.68;2.45;;;;;;;28.23;69.07;101626.00;5043809;28;20033;-77
2022/07/13 10:53:02;;;;;;;5.78;2.33;;;;;;;28.18;66.74;101625.81;5047308;28;20515;-78
2022/07/13 10:55:29;;;;;;;9.23;3.13;;;;;;;28.33;63.96;101634.84;5043152;28;20433;-78
2022/07/13 10:57:54;;;;;;;8.93;3.45;;;;;;;27.90;65.12;101626.91;5037351;28;20511;-78
2022/07/13 11:00:37;;;;;;;7.57;3.38;;;;;;;28.41;63.63;101626.16;5046449;28;20029;-78
2022/07/13 11:03:06;;;;;;;9.73;3.20;;;;;;;28.37;64.56;101622.06;5040705;28;20390;-78
2022/07/13 11:05:35;;;;;;;7.32;2.63;;;;;;;28.14;65.06;101627.31;5026367;28;20091;-78
2022/07/13 11:08:15;;;;;;;5.10;2.65;;;;;;;28.00;66.86;101626.47;5040238;28;20397;-78
2022/07/13 11:10:40;;;;;;;6.30;2.60;;;;;;;27.93;65.87;101625.59;5035814;28;20037;-78
2022/07/13 11:13:14;;;;;;;5.63;2.45;;;;;;;28.40;65.76;101629.19;5031252;28;20381;-78
2022/07/13 11:15:54;;;;;;;5.03;2.50;;;;;;;29.08;63.76;101617.44;5027750;28;20477;-79
2022/07/13 11:18:22;;;;;;;4.05;2.33;;;;;;;28.82;61.48;101623.22;5038976;28;20427;-79
2022/07/13 11:21:15;;;;;;;6.50;1.85;;;;;;;28.26;59.00;101633.16;5044779;28;20037;-79
2022/07/13 11:26:53;;;;;;;8.18;2.00;;;;;;;28.90;55.52;101626.63;5037160;28;20034;-79
2022/07/13 11:30:02;;;;;;;11.43;1.98;;;;;;;28.30;55.89;101626.88;5044296;28;20037;-78